sensor_id;sensor_type;location;lat;lon;timestamp;temperature;humidity
29363;DHT22;16349;53.672;10.014;2023-04-01T00:01:20;10.30;99.90
29363;DHT22;16349;53.672;10.014;2023-04-01T00:03:47;10.30;99.90
29363;DHT22;16349;53.672;10.014;2023-04-01T00:06:17;10.30;99.90
29363;DHT22;16349;53.672;10.014;2023-04-01T00:08:44;10.30;99.90
29363;DHT22;16349;53.672;10.014;2023-04-01T00:11:11;10.40;99.90
29363;DHT22;16349;53.672;10.014;2023-04-01T00:13:38;10.30;99.90
29363;DHT22;16349;53.672;10.014;2023-04-01T00:16:06;10.40;99.90
29363;DHT22;16349;53.672;10.014;2023-04-01T00:18:33;10.40;99.90
29363;DHT22;16349;53.672;10.014;2023-04-01T00:21:00;10.30;99.90
29363;DHT22;16349;53.672;10.014;2023-04-01T00:23:28;10.30;99.90
29363;DHT22;16349;53.672;10.014;2023-04-01T00:25:55;10.30;99.90
29363;DHT22;16349;53.672;10.014;2023-04-01T00:28:22;10.30;99.90
29363;DHT22;16349;53.672;10.014;2023-04-01T00:30:49;10.40;99.90
29363;DHT22;16349;53.672;10.014;2023-04-01T00:33:17;10.30;99.90
29363;DHT22;16349;53.672;10.014;2023-04-01T00:35:44;10.20;99.90
29363;DHT22;16349;53.672;10.014;2023-04-01T00:38:11;10.30;99.90
29363;DHT22;16349;53.672;10.014;2023-04-01T00:40:42;10.30;99.90
29363;DHT22;16349;53.672;10.014;2023-04-01T00:43:11;10.30;99.90
29363;DHT22;16349;53.672;10.014;2023-04-01T00:45:40;10.10;99.90
29363;DHT22;16349;53.672;10.014;2023-04-01T00:48:10;10.20;99.90
29363;DHT22;16349;53.672;10.014;2023-04-01T00:50:39;10.30;99.90
29363;DHT22;16349;53.672;10.014;2023-04-01T00:53:07;10.30;99.90
29363;DHT22;16349;53.672;10.014;2023-04-01T00:55:37;10.40;99.90
29363;DHT22;16349;53.672;10.014;2023-04-01T00:58:10;10.30;99.90
29363;DHT22;16349;53.672;10.014;2023-04-01T01:00:40;10.30;99.90
29363;DHT22;16349;53.672;10.014;2023-04-01T01:03:07;10.30;99.90
29363;DHT22;16349;53.672;10.014;2023-04-01T01:05:49;9.30;99.90
29363;DHT22;16349;53.672;10.014;2023-04-01T01:08:30;10.30;99.90
29363;DHT22;16349;53.672;10.014;2023-04-01T01:11:03;10.30;99.90
29363;DHT22;16349;53.672;10.014;2023-04-01T01:13:38;10.30;99.90
29363;DHT22;16349;53.672;10.014;2023-04-01T01:16:10;10.00;99.90
29363;DHT22;16349;53.672;10.014;2023-04-01T01:18:46;10.20;99.90
29363;DHT22;16349;53.672;10.014;2023-04-01T01:21:47;10.20;99.90
29363;DHT22;16349;53.672;10.014;2023-04-01T01:24:36;10.20;99.90
29363;DHT22;16349;53.672;10.014;2023-04-01T01:27:09;10.20;99.90
29363;DHT22;16349;53.672;10.014;2023-04-01T01:30:06;10.20;99.90
29363;DHT22;16349;53.672;10.014;2023-04-01T01:35:35;10.20;99.90
29363;DHT22;16349;53.672;10.014;2023-04-01T01:38:14;10.20;99.90
29363;DHT22;16349;53.672;10.014;2023-04-01T01:40:50;10.20;99.90
29363;DHT22;16349;53.672;10.014;2023-04-01T01:43:23;10.20;99.90
29363;DHT22;16349;53.672;10.014;2023-04-01T01:45:53;10.20;99.90
29363;DHT22;16349;53.672;10.014;2023-04-01T01:48:22;10.20;99.90
29363;DHT22;16349;53.672;10.014;2023-04-01T01:50:52;10.20;99.90
29363;DHT22;16349;53.672;10.014;2023-04-01T01:53:19;10.10;99.90
29363;DHT22;16349;53.672;10.014;2023-04-01T01:55:47;10.10;99.90
29363;DHT22;16349;53.672;10.014;2023-04-01T01:58:19;10.10;99.90
29363;DHT22;16349;53.672;10.014;2023-04-01T02:00:51;10.30;99.90
29363;DHT22;16349;53.672;10.014;2023-04-01T02:03:21;10.20;99.90
29363;DHT22;16349;53.672;10.014;2023-04-01T02:05:51;10.20;99.90
29363;DHT22;16349;53.672;10.014;2023-04-01T02:08:22;10.10;99.90
29363;DHT22;16349;53.672;10.014;2023-04-01T02:10:59;10.10;99.90
29363;DHT22;16349;53.672;10.014;2023-04-01T02:13:34;10.10;99.90
29363;DHT22;16349;53.672;10.014;2023-04-01T02:16:07;10.10;99.90
29363;DHT22;16349;53.672;10.014;2023-04-01T02:18:37;10.30;99.90
29363;DHT22;16349;53.672;10.014;2023-04-01T02:21:07;10.10;99.90
29363;DHT22;16349;53.672;10.014;2023-04-01T02:23:36;10.10;99.90
29363;DHT22;16349;53.672;10.014;2023-04-01T02:26:03;10.10;99.90
29363;DHT22;16349;53.672;10.014;2023-04-01T02:28:32;10.10;99.90
29363;DHT22;16349;53.672;10.014;2023-04-01T02:31:01;10.20;99.90
29363;DHT22;16349;53.672;10.014;2023-04-01T02:33:29;10.10;99.90
29363;DHT22;16349;53.672;10.014;2023-04-01T02:35:58;10.20;99.90
29363;DHT22;16349;53.672;10.014;2023-04-01T02:38:26;10.10;99.90
29363;DHT22;16349;53.672;10.014;2023-04-01T02:40:57;10.30;99.90
29363;DHT22;16349;53.672;10.014;2023-04-01T02:43:25;10.20;99.90
29363;DHT22;16349;53.672;10.014;2023-04-01T02:45:52;10.10;99.90
29363;DHT22;16349;53.672;10.014;2023-04-01T02:48:20;10.30;99.90
29363;DHT22;16349;53.672;10.014;2023-04-01T02:50:47;10.10;99.90
29363;DHT22;16349;53.672;10.014;2023-04-01T02:53:14;10.10;99.90
29363;DHT22;16349;53.672;10.014;2023-04-01T02:55:42;9.90;99.90
29363;DHT22;16349;53.672;10.014;2023-04-01T02:58:11;10.10;99.90
29363;DHT22;16349;53.672;10.014;2023-04-01T03:00:38;10.00;99.90
29363;DHT22;16349;53.672;10.014;2023-04-01T03:03:05;10.00;99.90
29363;DHT22;16349;53.672;10.014;2023-04-01T03:05:32;10.00;99.90
29363;DHT22;16349;53.672;10.014;2023-04-01T03:07:59;10.10;99.90
29363;DHT22;16349;53.672;10.014;2023-04-01T03:10:26;10.10;99.90
29363;DHT22;16349;53.672;10.014;2023-04-01T03:12:54;10.10;99.90
29363;DHT22;16349;53.672;10.014;2023-04-01T03:15:22;10.10;99.90
29363;DHT22;16349;53.672;10.014;2023-04-01T03:17:48;10.00;99.90
29363;DHT22;16349;53.672;10.014;2023-04-01T03:20:16;10.10;99.90
29363;DHT22;16349;53.672;10.014;2023-04-01T03:22:43;9.90;99.90
29363;DHT22;16349;53.672;10.014;2023-04-01T03:25:10;10.20;99.90
29363;DHT22;16349;53.672;10.014;2023-04-01T03:27:37;10.10;99.90
29363;DHT22;16349;53.672;10.014;2023-04-01T03:30:07;10.00;99.90
29363;DHT22;16349;53.672;10.014;2023-04-01T03:32:43;10.00;99.90
29363;DHT22;16349;53.672;10.014;2023-04-01T03:35:10;9.80;99.90
29363;DHT22;16349;53.672;10.014;2023-04-01T03:37:37;10.00;99.90
29363;DHT22;16349;53.672;10.014;2023-04-01T03:40:05;10.00;99.90
29363;DHT22;16349;53.672;10.014;2023-04-01T03:42:32;10.00;99.90
29363;DHT22;16349;53.672;10.014;2023-04-01T03:45:00;10.00;99.90
29363;DHT22;16349;53.672;10.014;2023-04-01T03:47:30;10.00;99.90
29363;DHT22;16349;53.672;10.014;2023-04-01T03:49:57;10.00;99.90
29363;DHT22;16349;53.672;10.014;2023-04-01T03:52:25;10.00;99.90
29363;DHT22;16349;53.672;10.014;2023-04-01T03:54:52;10.00;99.90
29363;DHT22;16349;53.672;10.014;2023-04-01T03:57:19;10.00;99.90
29363;DHT22;16349;53.672;10.014;2023-04-01T03:59:46;10.00;99.90
29363;DHT22;16349;53.672;10.014;2023-04-01T04:02:13;10.00;99.90
29363;DHT22;16349;53.672;10.014;2023-04-01T04:04:42;10.00;99.90
29363;DHT22;16349;53.672;10.014;2023-04-01T04:07:10;10.00;99.90
29363;DHT22;16349;53.672;10.014;2023-04-01T04:09:58;10.00;99.90
29363;DHT22;16349;53.672;10.014;2023-04-01T04:12:25;10.00;99.90
29363;DHT22;16349;53.672;10.014;2023-04-01T04:14:53;10.00;99.90
29363;DHT22;16349;53.672;10.014;2023-04-01T04:17:20;9.90;99.90
29363;DHT22;16349;53.672;10.014;2023-04-01T04:19:48;10.00;99.90
29363;DHT22;16349;53.672;10.014;2023-04-01T04:22:15;10.00;99.90
29363;DHT22;16349;53.672;10.014;2023-04-01T04:24:42;9.90;99.90
29363;DHT22;16349;53.672;10.014;2023-04-01T04:27:11;9.80;99.90
29363;DHT22;16349;53.672;10.014;2023-04-01T04:29:51;9.70;99.90
29363;DHT22;16349;53.672;10.014;2023-04-01T04:32:18;9.60;99.90
29363;DHT22;16349;53.672;10.014;2023-04-01T04:34:45;9.40;99.90
29363;DHT22;16349;53.672;10.014;2023-04-01T04:37:14;9.30;99.90
29363;DHT22;16349;53.672;10.014;2023-04-01T04:39:40;9.30;99.90
29363;DHT22;16349;53.672;10.014;2023-04-01T04:42:07;9.20;99.90
29363;DHT22;16349;53.672;10.014;2023-04-01T04:44:34;9.20;99.90
29363;DHT22;16349;53.672;10.014;2023-04-01T04:47:02;9.10;99.90
29363;DHT22;16349;53.672;10.014;2023-04-01T04:49:29;9.10;99.90
29363;DHT22;16349;53.672;10.014;2023-04-01T04:51:56;9.00;99.90
29363;DHT22;16349;53.672;10.014;2023-04-01T04:54:27;8.90;99.90
29363;DHT22;16349;53.672;10.014;2023-04-01T04:56:57;8.90;99.90
29363;DHT22;16349;53.672;10.014;2023-04-01T04:59:26;8.80;99.90
29363;DHT22;16349;53.672;10.014;2023-04-01T05:02:23;8.70;99.90
29363;DHT22;16349;53.672;10.014;2023-04-01T05:04:50;8.60;99.90
29363;DHT22;16349;53.672;10.014;2023-04-01T05:07:17;8.50;99.90
29363;DHT22;16349;53.672;10.014;2023-04-01T05:09:45;8.50;99.90
29363;DHT22;16349;53.672;10.014;2023-04-01T05:12:13;8.40;99.90
29363;DHT22;16349;53.672;10.014;2023-04-01T05:14:54;8.40;99.90
29363;DHT22;16349;53.672;10.014;2023-04-01T05:17:22;8.30;99.90
29363;DHT22;16349;53.672;10.014;2023-04-01T05:19:49;8.30;99.90
29363;DHT22;16349;53.672;10.014;2023-04-01T05:22:15;8.20;99.90
29363;DHT22;16349;53.672;10.014;2023-04-01T05:24:43;8.20;99.90
29363;DHT22;16349;53.672;10.014;2023-04-01T05:27:11;8.10;99.90
29363;DHT22;16349;53.672;10.014;2023-04-01T05:29:40;8.10;99.90
29363;DHT22;16349;53.672;10.014;2023-04-01T05:32:12;8.00;99.90
29363;DHT22;16349;53.672;10.014;2023-04-01T05:34:39;8.00;99.90
29363;DHT22;16349;53.672;10.014;2023-04-01T05:37:07;8.00;99.90
29363;DHT22;16349;53.672;10.014;2023-04-01T05:39:36;7.90;99.90
29363;DHT22;16349;53.672;10.014;2023-04-01T05:42:05;7.90;99.90
29363;DHT22;16349;53.672;10.014;2023-04-01T05:44:34;7.80;99.90
29363;DHT22;16349;53.672;10.014;2023-04-01T05:47:23;7.80;99.90
29363;DHT22;16349;53.672;10.014;2023-04-01T05:49:51;7.70;99.90
29363;DHT22;16349;53.672;10.014;2023-04-01T05:52:18;7.70;99.90
29363;DHT22;16349;53.672;10.014;2023-04-01T05:54:44;7.70;99.90
29363;DHT22;16349;53.672;10.014;2023-04-01T05:57:11;7.70;99.90
29363;DHT22;16349;53.672;10.014;2023-04-01T05:59:39;7.70;99.90
29363;DHT22;16349;53.672;10.014;2023-04-01T06:02:07;7.70;99.90
29363;DHT22;16349;53.672;10.014;2023-04-01T06:04:38;7.60;99.90
29363;DHT22;16349;53.672;10.014;2023-04-01T06:07:12;7.60;99.90
29363;DHT22;16349;53.672;10.014;2023-04-01T06:09:40;7.50;99.90
29363;DHT22;16349;53.672;10.014;2023-04-01T06:12:33;7.50;99.90
29363;DHT22;16349;53.672;10.014;2023-04-01T06:15:33;7.40;99.90
29363;DHT22;16349;53.672;10.014;2023-04-01T06:21:01;7.40;99.90
29363;DHT22;16349;53.672;10.014;2023-04-01T06:23:41;7.40;99.90
29363;DHT22;16349;53.672;10.014;2023-04-01T06:26:30;7.30;99.90
29363;DHT22;16349;53.672;10.014;2023-04-01T06:29:14;7.30;99.90
29363;DHT22;16349;53.672;10.014;2023-04-01T06:32:07;7.40;99.90
29363;DHT22;16349;53.672;10.014;2023-04-01T06:38:29;7.30;99.90
29363;DHT22;16349;53.672;10.014;2023-04-01T06:41:31;7.20;99.90
29363;DHT22;16349;53.672;10.014;2023-04-01T06:44:13;7.10;99.90
29363;DHT22;16349;53.672;10.014;2023-04-01T06:47:18;7.10;99.90
29363;DHT22;16349;53.672;10.014;2023-04-01T06:50:19;7.10;99.90
29363;DHT22;16349;53.672;10.014;2023-04-01T06:53:12;7.00;99.90
29363;DHT22;16349;53.672;10.014;2023-04-01T06:56:02;7.00;99.90
29363;DHT22;16349;53.672;10.014;2023-04-01T06:58:50;7.00;99.90
29363;DHT22;16349;53.672;10.014;2023-04-01T07:01:22;7.00;99.90
29363;DHT22;16349;53.672;10.014;2023-04-01T07:03:56;7.00;99.90
29363;DHT22;16349;53.672;10.014;2023-04-01T07:06:31;7.00;99.90
29363;DHT22;16349;53.672;10.014;2023-04-01T07:09:05;7.00;99.90
29363;DHT22;16349;53.672;10.014;2023-04-01T07:12:15;6.90;99.90
29363;DHT22;16349;53.672;10.014;2023-04-01T07:15:15;7.00;99.90
29363;DHT22;16349;53.672;10.014;2023-04-01T07:17:45;6.90;99.90
29363;DHT22;16349;53.672;10.014;2023-04-01T07:20:20;6.90;99.90
29363;DHT22;16349;53.672;10.014;2023-04-01T07:22:51;6.90;99.90
29363;DHT22;16349;53.672;10.014;2023-04-01T07:25:27;6.90;99.90
29363;DHT22;16349;53.672;10.014;2023-04-01T07:28:16;6.90;99.90
29363;DHT22;16349;53.672;10.014;2023-04-01T07:30:52;6.90;99.90
29363;DHT22;16349;53.672;10.014;2023-04-01T07:33:30;6.90;99.90
29363;DHT22;16349;53.672;10.014;2023-04-01T07:36:06;6.90;99.90
29363;DHT22;16349;53.672;10.014;2023-04-01T07:38:41;6.80;99.90
29363;DHT22;16349;53.672;10.014;2023-04-01T07:41:21;6.80;99.90
29363;DHT22;16349;53.672;10.014;2023-04-01T07:44:01;6.80;99.90
29363;DHT22;16349;53.672;10.014;2023-04-01T07:46:45;6.80;99.90
29363;DHT22;16349;53.672;10.014;2023-04-01T07:49:17;6.80;99.90
29363;DHT22;16349;53.672;10.014;2023-04-01T07:51:53;6.80;99.90
29363;DHT22;16349;53.672;10.014;2023-04-01T07:54:32;6.80;99.90
29363;DHT22;16349;53.672;10.014;2023-04-01T07:57:03;6.80;99.90
29363;DHT22;16349;53.672;10.014;2023-04-01T07:59:58;6.80;99.90
29363;DHT22;16349;53.672;10.014;2023-04-01T08:02:56;6.80;99.90
29363;DHT22;16349;53.672;10.014;2023-04-01T08:05:32;6.70;99.90
29363;DHT22;16349;53.672;10.014;2023-04-01T08:08:09;6.70;99.90
29363;DHT22;16349;53.672;10.014;2023-04-01T08:11:09;6.70;99.90
29363;DHT22;16349;53.672;10.014;2023-04-01T08:14:20;6.70;99.90
29363;DHT22;16349;53.672;10.014;2023-04-01T08:17:12;6.70;99.90
29363;DHT22;16349;53.672;10.014;2023-04-01T08:20:01;6.70;99.90
29363;DHT22;16349;53.672;10.014;2023-04-01T08:22:35;6.70;99.90
29363;DHT22;16349;53.672;10.014;2023-04-01T08:25:17;6.70;99.90
29363;DHT22;16349;53.672;10.014;2023-04-01T08:27:48;6.70;99.90
29363;DHT22;16349;53.672;10.014;2023-04-01T08:30:19;6.70;99.90
29363;DHT22;16349;53.672;10.014;2023-04-01T08:32:48;6.60;99.90
29363;DHT22;16349;53.672;10.014;2023-04-01T08:35:23;6.70;99.90
29363;DHT22;16349;53.672;10.014;2023-04-01T08:37:55;6.80;99.90
29363;DHT22;16349;53.672;10.014;2023-04-01T08:40:43;6.80;99.90
29363;DHT22;16349;53.672;10.014;2023-04-01T08:43:25;6.80;99.90
29363;DHT22;16349;53.672;10.014;2023-04-01T08:46:32;6.70;99.90
29363;DHT22;16349;53.672;10.014;2023-04-01T08:49:14;6.80;99.90
29363;DHT22;16349;53.672;10.014;2023-04-01T08:52:05;6.90;99.90
29363;DHT22;16349;53.672;10.014;2023-04-01T08:54:47;6.90;99.90
29363;DHT22;16349;53.672;10.014;2023-04-01T08:57:45;6.90;99.90
29363;DHT22;16349;53.672;10.014;2023-04-01T09:00:38;6.90;99.90
29363;DHT22;16349;53.672;10.014;2023-04-01T09:03:41;6.90;99.90
29363;DHT22;16349;53.672;10.014;2023-04-01T09:06:23;7.00;99.90
29363;DHT22;16349;53.672;10.014;2023-04-01T09:09:11;7.00;99.90
29363;DHT22;16349;53.672;10.014;2023-04-01T09:12:02;7.00;99.90
29363;DHT22;16349;53.672;10.014;2023-04-01T09:18:03;6.90;99.90
29363;DHT22;16349;53.672;10.014;2023-04-01T09:20:53;6.90;99.90
29363;DHT22;16349;53.672;10.014;2023-04-01T09:23:40;6.90;99.90
29363;DHT22;16349;53.672;10.014;2023-04-01T09:26:21;7.00;99.90
29363;DHT22;16349;53.672;10.014;2023-04-01T09:29:02;6.90;99.90
29363;DHT22;16349;53.672;10.014;2023-04-01T09:31:48;7.00;99.90
29363;DHT22;16349;53.672;10.014;2023-04-01T09:34:53;7.00;99.90
29363;DHT22;16349;53.672;10.014;2023-04-01T09:37:34;7.00;99.90
29363;DHT22;16349;53.672;10.014;2023-04-01T09:40:15;7.10;99.90
29363;DHT22;16349;53.672;10.014;2023-04-01T09:42:55;7.10;99.90
29363;DHT22;16349;53.672;10.014;2023-04-01T09:45:41;7.10;99.90
29363;DHT22;16349;53.672;10.014;2023-04-01T09:48:22;7.20;99.90
29363;DHT22;16349;53.672;10.014;2023-04-01T09:51:00;7.20;99.90
29363;DHT22;16349;53.672;10.014;2023-04-01T09:54:18;7.20;99.90
29363;DHT22;16349;53.672;10.014;2023-04-01T10:00:39;7.00;99.90
29363;DHT22;16349;53.672;10.014;2023-04-01T10:03:49;6.90;99.90
29363;DHT22;16349;53.672;10.014;2023-04-01T10:07:00;7.00;99.90
29363;DHT22;16349;53.672;10.014;2023-04-01T10:13:13;7.20;99.90
29363;DHT22;16349;53.672;10.014;2023-04-01T10:16:10;7.20;99.90
29363;DHT22;16349;53.672;10.014;2023-04-01T10:19:02;7.10;99.90
29363;DHT22;16349;53.672;10.014;2023-04-01T10:22:04;7.10;99.90
29363;DHT22;16349;53.672;10.014;2023-04-01T10:25:10;7.10;99.90
29363;DHT22;16349;53.672;10.014;2023-04-01T10:28:30;7.10;99.90
29363;DHT22;16349;53.672;10.014;2023-04-01T10:37:59;7.10;99.90
29363;DHT22;16349;53.672;10.014;2023-04-01T10:40:57;7.10;99.90
29363;DHT22;16349;53.672;10.014;2023-04-01T10:48:09;7.10;99.90
29363;DHT22;16349;53.672;10.014;2023-04-01T10:57:41;7.30;99.90
29363;DHT22;16349;53.672;10.014;2023-04-01T11:01:05;7.30;99.90
29363;DHT22;16349;53.672;10.014;2023-04-01T11:04:31;7.30;99.90
29363;DHT22;16349;53.672;10.014;2023-04-01T11:08:08;7.30;99.90
29363;DHT22;16349;53.672;10.014;2023-04-01T11:11:18;7.30;99.90
29363;DHT22;16349;53.672;10.014;2023-04-01T11:17:49;7.40;99.90
29363;DHT22;16349;53.672;10.014;2023-04-01T11:20:42;7.30;99.90
29363;DHT22;16349;53.672;10.014;2023-04-01T11:23:22;7.20;99.90
29363;DHT22;16349;53.672;10.014;2023-04-01T11:26:02;7.20;99.90
29363;DHT22;16349;53.672;10.014;2023-04-01T11:29:06;7.10;99.90
29363;DHT22;16349;53.672;10.014;2023-04-01T11:31:44;7.20;99.90
29363;DHT22;16349;53.672;10.014;2023-04-01T11:34:24;7.20;99.90
29363;DHT22;16349;53.672;10.014;2023-04-01T11:37:02;7.10;99.90
29363;DHT22;16349;53.672;10.014;2023-04-01T11:39:38;7.00;99.90
29363;DHT22;16349;53.672;10.014;2023-04-01T11:42:35;7.00;99.90
29363;DHT22;16349;53.672;10.014;2023-04-01T11:45:32;7.00;99.90
29363;DHT22;16349;53.672;10.014;2023-04-01T11:48:36;7.00;99.90
29363;DHT22;16349;53.672;10.014;2023-04-01T11:51:21;6.90;99.90
29363;DHT22;16349;53.672;10.014;2023-04-01T11:53:59;6.90;99.90
29363;DHT22;16349;53.672;10.014;2023-04-01T11:56:49;6.90;99.90
29363;DHT22;16349;53.672;10.014;2023-04-01T11:59:51;7.00;99.90
29363;DHT22;16349;53.672;10.014;2023-04-01T12:02:29;7.10;99.90
29363;DHT22;16349;53.672;10.014;2023-04-01T12:05:28;7.00;99.90
29363;DHT22;16349;53.672;10.014;2023-04-01T12:08:13;7.00;99.90
29363;DHT22;16349;53.672;10.014;2023-04-01T12:10:54;6.90;99.90
29363;DHT22;16349;53.672;10.014;2023-04-01T12:13:31;6.90;99.90
29363;DHT22;16349;53.672;10.014;2023-04-01T12:16:12;6.90;99.90
29363;DHT22;16349;53.672;10.014;2023-04-01T12:18:48;6.90;99.90
29363;DHT22;16349;53.672;10.014;2023-04-01T12:21:24;6.80;99.90
29363;DHT22;16349;53.672;10.014;2023-04-01T12:24:03;6.80;99.90
29363;DHT22;16349;53.672;10.014;2023-04-01T12:26:55;6.80;99.90
29363;DHT22;16349;53.672;10.014;2023-04-01T12:29:49;6.80;99.90
29363;DHT22;16349;53.672;10.014;2023-04-01T12:32:25;6.70;99.90
29363;DHT22;16349;53.672;10.014;2023-04-01T12:35:23;6.70;99.90
29363;DHT22;16349;53.672;10.014;2023-04-01T12:38:22;6.90;99.90
29363;DHT22;16349;53.672;10.014;2023-04-01T12:41:07;6.90;99.90
29363;DHT22;16349;53.672;10.014;2023-04-01T12:44:00;6.90;99.90
29363;DHT22;16349;53.672;10.014;2023-04-01T12:46:44;6.90;99.90
29363;DHT22;16349;53.672;10.014;2023-04-01T12:49:28;6.80;99.90
29363;DHT22;16349;53.672;10.014;2023-04-01T12:52:05;6.80;99.90
29363;DHT22;16349;53.672;10.014;2023-04-01T12:58:07;6.70;99.90
29363;DHT22;16349;53.672;10.014;2023-04-01T13:00:55;6.80;99.90
29363;DHT22;16349;53.672;10.014;2023-04-01T13:03:40;6.80;99.90
29363;DHT22;16349;53.672;10.014;2023-04-01T13:06:44;6.70;99.90
29363;DHT22;16349;53.672;10.014;2023-04-01T13:09:27;6.70;99.90
29363;DHT22;16349;53.672;10.014;2023-04-01T13:12:17;6.60;99.90
29363;DHT22;16349;53.672;10.014;2023-04-01T13:15:01;6.60;99.90
29363;DHT22;16349;53.672;10.014;2023-04-01T13:17:34;6.50;99.90
29363;DHT22;16349;53.672;10.014;2023-04-01T13:20:06;6.40;99.90
29363;DHT22;16349;53.672;10.014;2023-04-01T13:22:52;6.50;99.90
29363;DHT22;16349;53.672;10.014;2023-04-01T13:25:30;6.50;99.90
29363;DHT22;16349;53.672;10.014;2023-04-01T13:28:05;6.50;99.90
29363;DHT22;16349;53.672;10.014;2023-04-01T13:30:44;6.50;99.90
29363;DHT22;16349;53.672;10.014;2023-04-01T13:33:19;6.50;99.90
29363;DHT22;16349;53.672;10.014;2023-04-01T13:35:58;6.50;99.90
29363;DHT22;16349;53.672;10.014;2023-04-01T13:38:43;6.50;99.90
29363;DHT22;16349;53.672;10.014;2023-04-01T13:41:22;6.40;99.90
29363;DHT22;16349;53.672;10.014;2023-04-01T13:43:58;6.40;99.90
29363;DHT22;16349;53.672;10.014;2023-04-01T13:46:41;6.40;99.90
29363;DHT22;16349;53.672;10.014;2023-04-01T13:49:32;6.40;99.90
29363;DHT22;16349;53.672;10.014;2023-04-01T13:52:21;6.50;99.90
29363;DHT22;16349;53.672;10.014;2023-04-01T13:55:05;6.50;99.90
29363;DHT22;16349;53.672;10.014;2023-04-01T13:57:57;6.50;99.90
29363;DHT22;16349;53.672;10.014;2023-04-01T14:00:35;6.40;99.90
29363;DHT22;16349;53.672;10.014;2023-04-01T14:03:30;6.40;99.90
29363;DHT22;16349;53.672;10.014;2023-04-01T14:06:23;6.40;99.90
29363;DHT22;16349;53.672;10.014;2023-04-01T14:09:05;6.40;99.90
29363;DHT22;16349;53.672;10.014;2023-04-01T14:11:41;6.40;99.90
29363;DHT22;16349;53.672;10.014;2023-04-01T14:14:47;6.40;99.90
29363;DHT22;16349;53.672;10.014;2023-04-01T14:17:29;6.40;99.90
29363;DHT22;16349;53.672;10.014;2023-04-01T14:20:22;6.40;99.90
29363;DHT22;16349;53.672;10.014;2023-04-01T14:23:05;6.40;99.90
29363;DHT22;16349;53.672;10.014;2023-04-01T14:25:49;6.40;99.90
29363;DHT22;16349;53.672;10.014;2023-04-01T14:28:25;6.40;99.90
29363;DHT22;16349;53.672;10.014;2023-04-01T14:31:12;6.40;99.90
29363;DHT22;16349;53.672;10.014;2023-04-01T14:33:47;6.50;99.90
29363;DHT22;16349;53.672;10.014;2023-04-01T14:36:43;6.40;99.90
29363;DHT22;16349;53.672;10.014;2023-04-01T14:39:34;6.30;99.90
29363;DHT22;16349;53.672;10.014;2023-04-01T14:42:18;6.20;99.90
29363;DHT22;16349;53.672;10.014;2023-04-01T14:45:08;6.10;99.90
29363;DHT22;16349;53.672;10.014;2023-04-01T14:47:48;6.20;99.90
29363;DHT22;16349;53.672;10.014;2023-04-01T14:50:20;6.20;99.90
29363;DHT22;16349;53.672;10.014;2023-04-01T14:52:55;6.10;99.90
29363;DHT22;16349;53.672;10.014;2023-04-01T14:55:31;6.10;99.90
29363;DHT22;16349;53.672;10.014;2023-04-01T14:58:00;6.10;99.90
29363;DHT22;16349;53.672;10.014;2023-04-01T15:00:46;6.10;99.90
29363;DHT22;16349;53.672;10.014;2023-04-01T15:03:20;6.10;99.90
29363;DHT22;16349;53.672;10.014;2023-04-01T15:05:51;6.10;99.90
29363;DHT22;16349;53.672;10.014;2023-04-01T15:08:24;6.10;99.90
29363;DHT22;16349;53.672;10.014;2023-04-01T15:11:24;6.10;99.90
29363;DHT22;16349;53.672;10.014;2023-04-01T15:14:14;6.00;99.90
29363;DHT22;16349;53.672;10.014;2023-04-01T15:16:52;6.10;99.90
29363;DHT22;16349;53.672;10.014;2023-04-01T15:19:31;6.00;99.90
29363;DHT22;16349;53.672;10.014;2023-04-01T15:22:37;6.00;99.90
29363;DHT22;16349;53.672;10.014;2023-04-01T15:25:24;6.00;99.90
29363;DHT22;16349;53.672;10.014;2023-04-01T15:27:56;6.00;99.90
29363;DHT22;16349;53.672;10.014;2023-04-01T15:30:30;6.00;99.90
29363;DHT22;16349;53.672;10.014;2023-04-01T15:36:11;6.00;99.90
29363;DHT22;16349;53.672;10.014;2023-04-01T15:38:48;6.00;99.90
29363;DHT22;16349;53.672;10.014;2023-04-01T15:41:17;6.00;99.90
29363;DHT22;16349;53.672;10.014;2023-04-01T15:43:50;6.00;99.90
29363;DHT22;16349;53.672;10.014;2023-04-01T15:46:41;6.00;99.90
29363;DHT22;16349;53.672;10.014;2023-04-01T15:49:18;6.00;99.90
29363;DHT22;16349;53.672;10.014;2023-04-01T15:51:56;6.00;99.90
29363;DHT22;16349;53.672;10.014;2023-04-01T15:57:38;5.90;99.90
29363;DHT22;16349;53.672;10.014;2023-04-01T16:00:26;5.90;99.90
29363;DHT22;16349;53.672;10.014;2023-04-01T16:03:10;5.90;99.90
29363;DHT22;16349;53.672;10.014;2023-04-01T16:05:54;5.90;99.90
29363;DHT22;16349;53.672;10.014;2023-04-01T16:08:49;5.70;99.90
29363;DHT22;16349;53.672;10.014;2023-04-01T16:11:24;5.60;99.90
29363;DHT22;16349;53.672;10.014;2023-04-01T16:14:07;5.60;99.90
29363;DHT22;16349;53.672;10.014;2023-04-01T16:17:11;5.50;99.90
29363;DHT22;16349;53.672;10.014;2023-04-01T16:19:51;5.50;99.90
29363;DHT22;16349;53.672;10.014;2023-04-01T16:22:23;5.50;99.90
29363;DHT22;16349;53.672;10.014;2023-04-01T16:24:59;5.50;99.90
29363;DHT22;16349;53.672;10.014;2023-04-01T16:27:35;5.70;99.90
29363;DHT22;16349;53.672;10.014;2023-04-01T16:30:25;5.50;99.90
29363;DHT22;16349;53.672;10.014;2023-04-01T16:32:57;5.40;99.90
29363;DHT22;16349;53.672;10.014;2023-04-01T16:35:34;5.40;99.90
29363;DHT22;16349;53.672;10.014;2023-04-01T16:38:08;5.50;99.90
29363;DHT22;16349;53.672;10.014;2023-04-01T16:40:44;5.40;99.90
29363;DHT22;16349;53.672;10.014;2023-04-01T16:43:41;5.40;99.90
29363;DHT22;16349;53.672;10.014;2023-04-01T16:46:33;5.40;99.90
29363;DHT22;16349;53.672;10.014;2023-04-01T16:49:13;5.30;99.90
29363;DHT22;16349;53.672;10.014;2023-04-01T16:51:46;5.30;99.90
29363;DHT22;16349;53.672;10.014;2023-04-01T16:54:28;5.30;99.90
29363;DHT22;16349;53.672;10.014;2023-04-01T16:57:10;5.20;99.90
29363;DHT22;16349;53.672;10.014;2023-04-01T16:59:47;5.20;99.90
29363;DHT22;16349;53.672;10.014;2023-04-01T17:02:23;5.20;99.90
29363;DHT22;16349;53.672;10.014;2023-04-01T17:04:55;5.20;99.90
29363;DHT22;16349;53.672;10.014;2023-04-01T17:07:32;5.20;99.90
29363;DHT22;16349;53.672;10.014;2023-04-01T17:10:17;5.10;99.90
29363;DHT22;16349;53.672;10.014;2023-04-01T17:12:53;5.10;99.90
29363;DHT22;16349;53.672;10.014;2023-04-01T17:15:30;5.10;99.90
29363;DHT22;16349;53.672;10.014;2023-04-01T17:18:04;5.10;99.90
29363;DHT22;16349;53.672;10.014;2023-04-01T17:20:42;5.10;99.90
29363;DHT22;16349;53.672;10.014;2023-04-01T17:23:18;5.00;99.90
29363;DHT22;16349;53.672;10.014;2023-04-01T17:26:06;5.00;99.90
29363;DHT22;16349;53.672;10.014;2023-04-01T17:28:46;5.00;99.90
29363;DHT22;16349;53.672;10.014;2023-04-01T17:31:32;5.00;99.90
29363;DHT22;16349;53.672;10.014;2023-04-01T17:34:12;5.00;99.90